createdAt,value
2022-12-14T00:01:40.295Z,0.39
2022-12-14T00:04:07.750Z,0.54
2022-12-14T00:06:35.072Z,0.45
2022-12-14T00:09:02.816Z,0.36
2022-12-14T00:11:32.241Z,0.56
2022-12-14T00:14:00.339Z,0.71
2022-12-14T00:16:28.383Z,0.68
2022-12-14T00:18:56.151Z,0.43
2022-12-14T00:21:23.880Z,0.38
2022-12-14T00:23:51.404Z,0.58
2022-12-14T00:26:22.664Z,0.50
2022-12-14T00:28:50.884Z,0.46
2022-12-14T00:31:18.384Z,0.56
2022-12-14T00:33:45.985Z,0.56
2022-12-14T00:36:14.902Z,0.63
2022-12-14T00:38:42.386Z,0.61
2022-12-14T00:41:09.856Z,0.72
2022-12-14T00:43:37.774Z,0.70
2022-12-14T00:46:05.615Z,0.50
2022-12-14T00:48:33.649Z,0.75
2022-12-14T00:51:01.127Z,0.58
2022-12-14T00:53:28.440Z,0.76
2022-12-14T00:55:55.863Z,0.74
2022-12-14T00:58:23.636Z,0.86
2022-12-14T01:00:58.918Z,0.76
2022-12-14T01:03:26.896Z,0.84
2022-12-14T01:05:54.581Z,0.73
2022-12-14T01:08:22.143Z,0.82
2022-12-14T01:10:50.626Z,0.92
2022-12-14T01:13:18.210Z,0.68
2022-12-14T01:15:47.214Z,0.78
2022-12-14T01:18:14.968Z,0.79
2022-12-14T01:20:42.258Z,0.58
2022-12-14T01:23:09.686Z,0.62
2022-12-14T01:25:37.118Z,0.72
2022-12-14T01:28:04.551Z,0.61
2022-12-14T01:30:32.069Z,0.72
2022-12-14T01:32:59.374Z,0.71
2022-12-14T01:35:26.764Z,0.51
2022-12-14T01:37:54.068Z,0.49
2022-12-14T01:40:21.436Z,0.54
2022-12-14T01:42:48.725Z,0.71
2022-12-14T01:45:20.106Z,0.52
2022-12-14T01:47:49.444Z,0.59
2022-12-14T01:50:19.875Z,0.72
2022-12-14T01:52:47.550Z,0.74
2022-12-14T01:55:14.847Z,0.66
2022-12-14T01:57:48.342Z,0.71
2022-12-14T02:00:16.973Z,0.52
2022-12-14T02:02:46.131Z,0.25
2022-12-14T02:05:13.653Z,0.33
2022-12-14T02:07:41.139Z,0.31
2022-12-14T02:10:09.315Z,0.50
2022-12-14T02:12:48.271Z,0.35
2022-12-14T02:15:15.713Z,0.30
2022-12-14T02:17:43.267Z,0.48
2022-12-14T02:20:10.930Z,0.59
2022-12-14T02:22:56.769Z,0.49
2022-12-14T02:25:24.338Z,0.53
2022-12-14T02:27:59.058Z,0.64
2022-12-14T02:30:26.549Z,0.60
2022-12-14T02:33:11.239Z,0.54
2022-12-14T02:35:45.832Z,0.44
2022-12-14T02:38:36.318Z,0.19
2022-12-14T02:41:22.548Z,0.19
2022-12-14T02:43:50.037Z,-0.01
2022-12-14T02:46:23.640Z,0.30
2022-12-14T02:48:58.939Z,0.33
2022-12-14T02:51:31.268Z,0.31
2022-12-14T02:54:02.784Z,0.35
2022-12-14T02:56:33.329Z,0.46
2022-12-14T02:59:01.539Z,0.66
2022-12-14T03:01:29.238Z,0.41
2022-12-14T03:03:56.767Z,0.66
2022-12-14T03:06:27.163Z,0.38
2022-12-14T03:09:05.092Z,0.52
2022-12-14T03:11:37.964Z,0.33
2022-12-14T03:14:25.900Z,0.59
2022-12-14T03:16:53.649Z,0.55
2022-12-14T03:19:23.135Z,0.46
2022-12-14T03:21:52.371Z,0.23
2022-12-14T03:24:21.254Z,0.45
2022-12-14T03:27:21.040Z,0.26
2022-12-14T03:29:53.010Z,0.45
2022-12-14T03:32:20.737Z,0.33
2022-12-14T03:35:26.787Z,0.30
2022-12-14T03:38:06.238Z,0.35
2022-12-14T03:40:43.999Z,0.41
2022-12-14T03:43:30.536Z,0.22
2022-12-14T03:46:03.762Z,0.12
2022-12-14T03:48:31.772Z,0.35
2022-12-14T03:51:07.937Z,0.39
2022-12-14T03:53:47.605Z,0.58
2022-12-14T03:56:15.036Z,0.38
2022-12-14T03:58:50.009Z,0.38
2022-12-14T04:01:22.888Z,0.40
2022-12-14T04:03:53.066Z,0.16
2022-12-14T04:06:23.551Z,0.36
2022-12-14T04:08:57.185Z,0.40
2022-12-14T04:11:43.667Z,0.03
2022-12-14T04:14:34.349Z,0.09
2022-12-14T04:17:20.809Z,0.16
2022-12-14T04:19:49.729Z,0.15
2022-12-14T04:22:18.590Z,-0.16
2022-12-14T04:25:05.682Z,-0.37
2022-12-14T04:27:34.930Z,-0.18
2022-12-14T04:30:02.290Z,-0.23
2022-12-14T04:32:36.229Z,-0.25
2022-12-14T04:35:22.897Z,-0.05
2022-12-14T04:37:55.541Z,0.14
2022-12-14T04:40:24.147Z,-0.06
2022-12-14T04:43:12.171Z,-0.22
2022-12-14T04:45:40.399Z,-0.23
2022-12-14T04:48:07.777Z,-0.39
2022-12-14T04:50:36.158Z,-0.21
2022-12-14T04:53:05.456Z,-0.23
2022-12-14T04:55:38.613Z,-0.21
2022-12-14T04:58:06.104Z,-0.15
2022-12-14T05:00:36.736Z,-0.32
2022-12-14T05:03:07.438Z,-0.48
2022-12-14T05:05:35.417Z,-0.59
2022-12-14T05:08:10.962Z,-0.35
2022-12-14T05:10:38.399Z,-0.49
2022-12-14T05:13:12.117Z,-0.65
2022-12-14T05:15:40.763Z,-0.61
2022-12-14T05:18:08.149Z,-0.51
2022-12-14T05:20:37.037Z,-0.72
2022-12-14T05:23:04.701Z,-0.46
2022-12-14T05:25:32.542Z,-0.43
2022-12-14T05:27:59.897Z,-0.47
2022-12-14T05:30:27.370Z,-0.78
2022-12-14T05:32:54.946Z,-0.78
2022-12-14T05:35:22.270Z,-0.55
2022-12-14T05:37:49.732Z,-0.69
2022-12-14T05:40:17.245Z,-0.78
2022-12-14T05:42:47.737Z,-0.54
2022-12-14T05:45:18.616Z,-0.66
2022-12-14T05:47:46.280Z,-0.57
2022-12-14T05:50:14.028Z,-0.93
2022-12-14T05:52:41.525Z,-0.92
2022-12-14T05:55:09.099Z,-0.60
2022-12-14T05:57:36.466Z,-0.81
2022-12-14T06:00:04.532Z,-0.87
2022-12-14T06:02:34.625Z,-0.80
2022-12-14T06:05:02.256Z,-0.80
2022-12-14T06:07:29.770Z,-0.78
2022-12-14T06:09:57.124Z,-0.49
2022-12-14T06:12:24.588Z,-0.49
2022-12-14T06:14:51.976Z,-0.47
2022-12-14T06:17:20.087Z,-0.42
2022-12-14T06:19:50.030Z,-0.91
2022-12-14T06:22:20.305Z,-0.89
2022-12-14T06:24:47.848Z,-0.57
2022-12-14T06:27:15.163Z,-0.44
2022-12-14T06:29:43.859Z,-0.67
2022-12-14T06:32:11.467Z,-0.86
2022-12-14T06:34:42.152Z,-0.69
2022-12-14T06:37:09.896Z,-0.90
2022-12-14T06:39:37.229Z,-0.78
2022-12-14T06:42:04.807Z,-0.77
2022-12-14T06:44:33.015Z,-0.75
2022-12-14T06:47:00.588Z,-1.10
2022-12-14T06:49:27.951Z,-0.90
2022-12-14T06:51:55.830Z,-1.01
2022-12-14T06:54:23.669Z,-0.79
2022-12-14T06:56:51.158Z,-0.81
2022-12-14T06:59:18.533Z,-0.78
2022-12-14T07:01:46.280Z,-0.51
2022-12-14T07:04:21.163Z,-0.48
2022-12-14T07:06:48.933Z,0.07
2022-12-14T07:09:16.331Z,1.46
2022-12-14T07:11:43.685Z,3.45
2022-12-14T07:14:13.580Z,5.26
2022-12-14T07:16:43.817Z,6.22
2022-12-14T07:19:14.105Z,7.14
2022-12-14T07:21:41.667Z,6.80
2022-12-14T07:24:09.048Z,7.77
2022-12-14T07:26:37.607Z,8.35
2022-12-14T07:29:04.979Z,8.53
2022-12-14T07:31:32.701Z,8.15
2022-12-14T07:34:00.389Z,8.19
2022-12-14T07:36:28.482Z,8.17
2022-12-14T07:38:55.943Z,8.60
2022-12-14T07:41:24.740Z,9.24
2022-12-14T07:43:52.352Z,9.33
2022-12-14T07:46:20.654Z,9.72
2022-12-14T07:48:49.077Z,9.57
2022-12-14T07:51:16.922Z,9.55
2022-12-14T07:53:44.330Z,9.40
2022-12-14T07:56:12.605Z,8.81
2022-12-14T07:58:39.981Z,9.24
2022-12-14T08:01:18.145Z,8.77
2022-12-14T08:03:46.902Z,8.62
2022-12-14T08:06:14.607Z,8.27
2022-12-14T08:08:42.274Z,8.72
2022-12-14T08:11:09.962Z,8.82
2022-12-14T08:13:38.996Z,8.45
2022-12-14T08:16:07.133Z,8.60
2022-12-14T08:18:35.140Z,8.89
2022-12-14T08:21:02.790Z,9.51
2022-12-14T08:23:30.807Z,9.47
2022-12-14T08:25:58.791Z,8.90
2022-12-14T08:28:28.812Z,9.61
2022-12-14T08:30:56.409Z,9.35
2022-12-14T08:33:24.006Z,9.52
2022-12-14T08:35:51.789Z,8.39
2022-12-14T08:38:19.247Z,8.50
2022-12-14T08:40:46.600Z,8.27
2022-12-14T08:43:13.990Z,8.10
2022-12-14T08:45:41.375Z,8.56
2022-12-14T08:48:08.875Z,8.10
2022-12-14T08:50:36.204Z,7.08
2022-12-14T08:53:03.619Z,6.89
2022-12-14T08:55:35.151Z,7.09
2022-12-14T08:58:05.870Z,7.01
2022-12-14T09:00:33.281Z,7.18
2022-12-14T09:03:00.783Z,6.96
2022-12-14T09:05:28.129Z,6.68
2022-12-14T09:07:55.824Z,6.00
2022-12-14T09:10:23.169Z,6.20
2022-12-14T09:12:51.379Z,5.99
2022-12-14T09:15:18.719Z,5.97
2022-12-14T09:17:46.240Z,5.90
2022-12-14T09:20:14.341Z,5.70
2022-12-14T09:22:41.796Z,5.82
2022-12-14T09:25:09.563Z,5.44
2022-12-14T09:27:36.909Z,4.64
2022-12-14T09:30:04.541Z,5.48
2022-12-14T09:32:33.558Z,5.10
2022-12-14T09:35:01.024Z,5.23
2022-12-14T09:37:28.315Z,5.27
2022-12-14T09:39:55.877Z,5.04
2022-12-14T09:42:41.743Z,4.71
2022-12-14T09:45:12.310Z,4.63
2022-12-14T09:47:41.987Z,4.89
2022-12-14T09:50:13.291Z,4.48
2022-12-14T09:52:42.334Z,4.71
2022-12-14T09:55:39.122Z,4.96
2022-12-14T09:58:07.607Z,5.14
2022-12-14T10:00:37.379Z,5.23
2022-12-14T10:03:11.826Z,5.13
2022-12-14T10:05:42.915Z,4.93
2022-12-14T10:08:34.017Z,4.80
2022-12-14T10:11:05.248Z,4.78
2022-12-14T10:13:36.426Z,4.71
2022-12-14T10:16:16.249Z,4.42
2022-12-14T10:19:03.202Z,4.53
2022-12-14T10:21:54.646Z,4.58
2022-12-14T10:24:24.139Z,4.66
2022-12-14T10:26:52.714Z,4.44
2022-12-14T10:29:27.012Z,4.79
2022-12-14T10:32:00.926Z,4.69
2022-12-14T10:34:29.445Z,4.46
2022-12-14T10:37:02.744Z,4.96
2022-12-14T10:39:43.674Z,5.04
2022-12-14T10:42:39.056Z,4.36
2022-12-14T10:48:22.045Z,4.44
2022-12-14T10:50:54.198Z,4.22
2022-12-14T10:53:22.914Z,4.40
2022-12-14T10:55:58.536Z,4.57
2022-12-14T10:58:26.971Z,4.20
2022-12-14T11:00:54.984Z,4.23
2022-12-14T11:03:22.810Z,4.15
2022-12-14T11:06:07.752Z,3.94
2022-12-14T11:08:40.184Z,3.97
2022-12-14T11:11:19.437Z,3.92
2022-12-14T11:13:51.399Z,4.29
2022-12-14T11:16:33.743Z,4.13
2022-12-14T11:19:03.783Z,4.04
2022-12-14T11:21:32.220Z,3.98
2022-12-14T11:23:59.976Z,3.74
2022-12-14T11:26:32.728Z,3.78
2022-12-14T11:29:00.729Z,3.49
2022-12-14T11:31:43.417Z,3.44
2022-12-14T11:34:30.143Z,3.12
2022-12-14T11:37:10.834Z,3.29
2022-12-14T11:39:39.618Z,2.95
2022-12-14T11:42:07.111Z,2.58
2022-12-14T11:44:36.234Z,2.76
2022-12-14T11:47:09.852Z,2.50
2022-12-14T11:49:39.035Z,2.72
2022-12-14T11:52:06.376Z,2.71
2022-12-14T11:54:34.772Z,2.43
2022-12-14T11:57:08.637Z,2.33
2022-12-14T11:59:56.268Z,2.39
2022-12-14T12:02:30.977Z,2.11
2022-12-14T12:05:00.466Z,1.90
2022-12-14T12:07:29.823Z,2.05
2022-12-14T12:10:01.354Z,1.92
2022-12-14T12:12:28.991Z,1.78
2022-12-14T12:14:56.684Z,1.94
2022-12-14T12:17:40.413Z,2.15
2022-12-14T12:20:28.184Z,1.75
2022-12-14T12:22:57.515Z,1.87
2022-12-14T12:25:32.306Z,1.74
2022-12-14T12:28:04.645Z,1.71
2022-12-14T12:30:33.649Z,1.77
2022-12-14T12:33:06.541Z,1.46
2022-12-14T12:35:36.957Z,1.85
2022-12-14T12:38:24.575Z,1.95
2022-12-14T12:41:01.271Z,1.62
2022-12-14T12:43:30.352Z,1.67
2022-12-14T12:46:12.173Z,1.71
2022-12-14T12:48:45.907Z,1.69
2022-12-14T12:51:17.365Z,1.55
2022-12-14T12:53:45.619Z,1.56
2022-12-14T12:56:17.437Z,1.65
2022-12-14T12:58:50.631Z,1.55
2022-12-14T13:01:36.184Z,1.64
2022-12-14T13:04:04.463Z,1.59
2022-12-14T13:06:36.011Z,1.80
2022-12-14T13:09:09.358Z,1.48
2022-12-14T13:11:38.283Z,1.60
2022-12-14T13:14:08.322Z,1.13
2022-12-14T13:16:37.175Z,1.25
2022-12-14T13:22:15.058Z,0.72
2022-12-14T13:24:43.456Z,0.83
2022-12-14T13:27:23.726Z,0.87
2022-12-14T13:30:00.228Z,1.04
2022-12-14T13:32:49.004Z,0.79
2022-12-14T13:35:16.490Z,1.02
2022-12-14T13:37:45.425Z,0.53
2022-12-14T13:40:23.756Z,0.44
2022-12-14T13:43:09.858Z,0.38
2022-12-14T13:45:41.265Z,0.12
2022-12-14T13:48:17.964Z,0.39
2022-12-14T13:50:52.951Z,0.13
2022-12-14T13:53:51.686Z,0.27
2022-12-14T13:56:19.583Z,0.56
2022-12-14T13:58:47.421Z,0.51
2022-12-14T14:01:15.779Z,0.38
2022-12-14T14:03:43.986Z,0.01
2022-12-14T14:06:12.608Z,0.36
2022-12-14T14:08:42.251Z,0.01
2022-12-14T14:11:36.280Z,-0.01
2022-12-14T14:14:12.265Z,-0.06
2022-12-14T14:16:42.775Z,-0.06
2022-12-14T14:19:11.544Z,-0.10
2022-12-14T14:21:58.935Z,-0.14
2022-12-14T14:24:27.882Z,-0.11
2022-12-14T14:26:58.945Z,-0.27
2022-12-14T14:29:26.326Z,-0.78
2022-12-14T14:31:57.699Z,-0.53
2022-12-14T14:34:29.257Z,-0.38
2022-12-14T14:36:56.696Z,-0.68
2022-12-14T14:39:55.404Z,-0.36
2022-12-14T14:42:20.327Z,-0.42
2022-12-14T14:44:50.634Z,-0.44
2022-12-14T14:47:39.137Z,-0.30
2022-12-14T14:50:07.639Z,-0.31
2022-12-14T14:52:41.765Z,-0.15
2022-12-14T14:55:52.027Z,-0.17
2022-12-14T14:58:24.647Z,0.03
2022-12-14T15:01:07.491Z,-0.10
2022-12-14T15:03:45.212Z,-0.04
2022-12-14T15:06:13.766Z,-0.15
2022-12-14T15:08:43.099Z,-0.45
2022-12-14T15:11:15.086Z,-0.47
2022-12-14T15:13:51.487Z,-0.30
2022-12-14T15:16:40.849Z,-0.36
2022-12-14T15:19:36.530Z,-0.44
2022-12-14T15:22:04.936Z,-0.27
2022-12-14T15:24:34.135Z,-0.21
2022-12-14T15:27:07.628Z,-0.32
2022-12-14T15:29:35.298Z,-0.37
2022-12-14T15:32:04.257Z,-0.30
2022-12-14T15:34:31.694Z,-0.18
2022-12-14T15:36:59.260Z,-0.16
2022-12-14T15:39:27.155Z,-0.32
2022-12-14T15:42:11.541Z,-0.27
2022-12-14T15:44:43.832Z,-0.21
2022-12-14T15:47:25.337Z,-0.28
2022-12-14T15:49:57.685Z,-0.30
2022-12-14T15:52:29.438Z,-0.28
2022-12-14T15:54:57.393Z,-0.29
2022-12-14T15:57:24.838Z,-0.36
2022-12-14T15:59:52.525Z,-0.19
2022-12-14T16:02:32.363Z,-0.44
2022-12-14T16:05:00.599Z,-0.32
2022-12-14T16:07:38.686Z,-0.29
2022-12-14T16:10:27.345Z,-0.24
2022-12-14T16:12:56.647Z,-0.52
2022-12-14T16:15:25.871Z,-0.32
2022-12-14T16:18:01.077Z,-0.15
2022-12-14T16:20:34.350Z,-0.25
2022-12-14T16:23:06.163Z,-0.38
2022-12-14T16:25:34.544Z,-0.42
2022-12-14T16:28:25.902Z,-0.24
2022-12-14T16:31:13.733Z,-0.44
2022-12-14T16:33:41.832Z,-0.37
2022-12-14T16:36:09.226Z,-0.37
2022-12-14T16:38:41.031Z,-0.17
2022-12-14T16:41:08.396Z,-0.19
2022-12-14T16:43:36.676Z,-0.58
2022-12-14T16:46:04.238Z,-0.31
2022-12-14T16:48:32.384Z,-0.04
2022-12-14T16:51:28.608Z,-0.01
2022-12-14T16:54:06.375Z,-0.40
2022-12-14T16:56:34.416Z,-0.60
2022-12-14T16:59:05.960Z,-0.53
2022-12-14T17:01:40.193Z,-0.37
2022-12-14T17:04:07.983Z,-0.30
2022-12-14T17:06:51.289Z,-0.31
2022-12-14T17:09:22.672Z,-0.47
2022-12-14T17:11:51.975Z,-0.50
2022-12-14T17:14:19.868Z,-0.35
2022-12-14T17:16:47.969Z,-0.69
2022-12-14T17:19:35.542Z,-0.51
2022-12-14T17:22:03.418Z,-0.68
2022-12-14T17:24:31.148Z,-0.70
2022-12-14T17:26:58.476Z,-0.52
2022-12-14T17:29:27.107Z,-0.53
2022-12-14T17:31:58.115Z,-0.57
2022-12-14T17:34:25.558Z,-0.51
2022-12-14T17:36:53.696Z,-0.58
2022-12-14T17:39:21.087Z,-0.41
2022-12-14T17:41:48.637Z,-0.60
2022-12-14T17:44:16.823Z,-0.81
2022-12-14T17:46:45.276Z,-0.80
2022-12-14T17:49:14.775Z,-0.66
2022-12-14T17:51:43.718Z,-0.77
2022-12-14T17:54:18.264Z,-0.68
2022-12-14T17:56:45.957Z,-0.70
2022-12-14T17:59:13.809Z,-0.57
2022-12-14T18:01:41.949Z,-0.75
2022-12-14T18:04:09.523Z,-0.55
2022-12-14T18:06:37.318Z,-0.66
2022-12-14T18:09:07.308Z,-0.51
2022-12-14T18:11:34.961Z,-0.49
2022-12-14T18:14:02.690Z,-0.60
2022-12-14T18:16:31.015Z,-0.71
2022-12-14T18:18:58.581Z,-0.60
2022-12-14T18:21:28.939Z,-0.63
2022-12-14T18:23:56.574Z,-0.68
2022-12-14T18:26:24.218Z,-0.76
2022-12-14T18:28:52.233Z,-0.91
2022-12-14T18:31:38.397Z,-0.92
2022-12-14T18:34:05.851Z,-0.79
2022-12-14T18:36:33.575Z,-0.58
2022-12-14T18:39:01.334Z,-0.56
2022-12-14T18:41:30.111Z,-0.45
2022-12-14T18:43:58.094Z,-0.53
2022-12-14T18:46:25.581Z,-0.29
2022-12-14T18:48:52.980Z,-0.12
2022-12-14T18:51:24.008Z,-0.59
2022-12-14T18:53:51.442Z,-0.78
2022-12-14T18:56:19.015Z,-0.94
2022-12-14T18:58:47.605Z,-0.86
2022-12-14T19:01:16.303Z,-0.94
2022-12-14T19:03:44.092Z,-0.89
2022-12-14T19:09:00.015Z,-1.10
2022-12-14T19:11:27.376Z,-1.06
2022-12-14T19:13:58.193Z,-1.07
2022-12-14T19:16:25.992Z,-1.28
2022-12-14T19:18:53.509Z,-1.19
2022-12-14T19:21:26.120Z,-1.11
2022-12-14T19:23:55.822Z,-1.03
2022-12-14T19:26:23.417Z,-0.89
2022-12-14T19:28:50.777Z,-1.02
2022-12-14T19:31:18.265Z,-1.01
2022-12-14T19:33:45.870Z,-0.74
2022-12-14T19:36:13.404Z,-0.50
2022-12-14T19:38:40.827Z,-0.63
2022-12-14T19:41:09.150Z,-0.84
2022-12-14T19:43:36.550Z,-0.98
2022-12-14T19:46:07.942Z,-1.44
2022-12-14T19:48:35.558Z,-0.88
2022-12-14T19:51:03.652Z,-0.58
2022-12-14T19:53:32.603Z,-0.66
2022-12-14T19:56:00.186Z,-0.57
2022-12-14T19:58:27.883Z,-0.75
2022-12-14T20:00:55.283Z,-0.60
2022-12-14T20:03:22.830Z,-0.60
2022-12-14T20:05:59.442Z,-0.49
2022-12-14T20:08:27.916Z,-0.59
2022-12-14T20:10:55.504Z,-0.55
2022-12-14T20:13:23.248Z,-0.45
2022-12-14T20:15:51.150Z,-0.34
2022-12-14T20:18:20.697Z,-0.72
2022-12-14T20:20:49.461Z,-0.60
2022-12-14T20:23:18.191Z,-0.49
2022-12-14T20:25:45.967Z,-0.36
2022-12-14T20:28:13.569Z,-0.36
2022-12-14T20:30:44.433Z,-0.73
2022-12-14T20:33:11.872Z,-0.84
2022-12-14T20:35:39.203Z,-0.99
2022-12-14T20:38:08.310Z,-0.94
2022-12-14T20:40:38.947Z,-0.81
2022-12-14T20:43:07.148Z,-0.64
2022-12-14T20:45:38.231Z,-0.58
2022-12-14T20:48:05.843Z,-0.67
2022-12-14T20:50:33.654Z,-0.62
2022-12-14T20:53:01.195Z,-0.45
2022-12-14T20:55:29.138Z,-0.77
2022-12-14T20:57:56.502Z,-0.67
2022-12-14T21:00:24.389Z,-0.50
2022-12-14T21:02:52.312Z,-0.66
2022-12-14T21:05:19.706Z,-0.32
2022-12-14T21:07:50.779Z,-0.39
2022-12-14T21:10:21.454Z,-0.39
2022-12-14T21:12:49.726Z,-0.73
2022-12-14T21:15:17.433Z,-0.45
2022-12-14T21:17:44.995Z,-0.41
2022-12-14T21:20:12.409Z,-0.75
2022-12-14T21:22:40.245Z,-0.63
2022-12-14T21:25:08.005Z,-0.58
2022-12-14T21:27:38.587Z,-0.58
2022-12-14T21:30:06.891Z,-0.38
2022-12-14T21:32:38.487Z,-0.51
2022-12-14T21:35:06.311Z,-0.64
2022-12-14T21:37:33.670Z,-0.48
2022-12-14T21:40:03.918Z,-0.83
2022-12-14T21:42:31.507Z,-0.81
2022-12-14T21:44:59.126Z,-0.56
2022-12-14T21:47:27.829Z,-0.61
2022-12-14T21:49:55.298Z,-0.42
2022-12-14T21:52:24.202Z,-0.39
2022-12-14T21:54:51.587Z,-0.29
2022-12-14T21:57:38.713Z,-0.40
2022-12-14T22:00:06.931Z,-0.53
2022-12-14T22:02:41.814Z,-0.61
2022-12-14T22:05:10.329Z,-0.36
2022-12-14T22:07:37.675Z,-0.19
2022-12-14T22:10:05.236Z,-0.54
2022-12-14T22:12:32.687Z,-0.65
2022-12-14T22:15:00.308Z,-0.86
2022-12-14T22:17:27.985Z,-0.66
2022-12-14T22:19:55.485Z,-0.48
2022-12-14T22:22:24.195Z,-0.64
2022-12-14T22:24:51.923Z,-0.70
2022-12-14T22:27:19.525Z,-0.88
2022-12-14T22:29:47.135Z,-0.92
2022-12-14T22:32:14.997Z,-0.53
2022-12-14T22:34:42.503Z,-0.58
2022-12-14T22:37:09.822Z,-0.58
2022-12-14T22:39:37.266Z,-0.67
2022-12-14T22:42:04.656Z,-0.71
2022-12-14T22:44:32.563Z,-0.72
2022-12-14T22:46:59.924Z,-0.71
2022-12-14T22:49:27.363Z,-0.46
2022-12-14T22:51:54.737Z,-0.50
2022-12-14T22:54:24.957Z,-0.81
2022-12-14T22:56:55.343Z,-0.47
2022-12-14T22:59:43.265Z,-0.57
2022-12-14T23:02:11.154Z,-0.75
2022-12-14T23:04:39.088Z,-0.62
2022-12-14T23:07:06.534Z,-0.51
2022-12-14T23:09:52.667Z,-0.58
2022-12-14T23:12:38.607Z,-0.71
2022-12-14T23:15:24.726Z,-0.32
2022-12-14T23:18:13.602Z,-0.33
2022-12-14T23:20:59.674Z,-0.47
2022-12-14T23:23:45.880Z,-0.41
2022-12-14T23:26:31.914Z,-0.53
2022-12-14T23:29:18.730Z,-0.43
2022-12-14T23:32:04.941Z,-0.40
2022-12-14T23:34:51.060Z,-0.50
2022-12-14T23:37:37.092Z,-0.53
2022-12-14T23:40:23.352Z,-0.42
2022-12-14T23:43:08.981Z,-0.65
2022-12-14T23:45:54.765Z,-0.53
2022-12-14T23:48:40.883Z,-0.58
2022-12-14T23:51:27.012Z,-0.30
2022-12-14T23:54:12.811Z,-0.67
2022-12-14T23:56:58.759Z,-0.53
2022-12-14T23:59:49.655Z,-0.71
